Time,TemperatureF,DewpointF,PressureIn,WindDirection,WindDirectionDegrees,WindSpeedMPH,WindSpeedGustMPH,Humidity,HourlyPrecipIn,Conditions,Clouds,dailyrainin,SoftwareType,DateUTC
2014-03-09 00:00:00,10.8,6.9,30.15,WNW,291,2.8,12.6,84,0.00,,,0.00,VWS V14.01,2014-03-09 05:00:00,
2014-03-09 00:01:00,10.8,6.9,30.15,WNW,291,2.8,12.6,84,0.00,,,0.00,VWS V14.01,2014-03-09 05:01:00,
2014-03-09 00:06:00,10.9,7.0,30.15,WNW,293,1.4,5.6,84,0.00,,,0.00,VWS V14.01,2014-03-09 05:06:00,
2014-03-09 00:11:00,10.9,7.0,30.15,WNW,283,0.0,5.6,84,0.00,,,0.00,VWS V14.01,2014-03-09 05:11:00,
2014-03-09 00:16:00,8.7,2.4,30.15,SSE,159,1.4,5.6,75,0.00,,,0.00,VWS V14.01,2014-03-09 05:16:00,
2014-03-09 00:21:00,6.2,0.8,30.16,SSE,158,1.4,5.6,78,0.00,,,0.00,VWS V14.01,2014-03-09 05:21:00,
2014-03-09 00:26:00,4.8,0.0,30.16,SSE,158,0.0,5.6,80,0.00,,,0.00,VWS V14.01,2014-03-09 05:26:00,
2014-03-09 00:31:00,4.1,0.3,30.16,SSW,206,0.0,5.6,84,0.00,,,0.00,VWS V14.01,2014-03-09 05:31:00,
2014-03-09 00:36:00,5.0,2.0,30.16,NW,312,0.0,5.6,87,0.00,,,0.00,VWS V14.01,2014-03-09 05:36:00,
2014-03-09 00:41:00,5.6,2.8,30.15,WNW,291,1.4,5.6,88,0.00,,,0.00,VWS V14.01,2014-03-09 05:41:00,
2014-03-09 00:46:00,6.5,4.0,30.15,WNW,285,1.4,5.6,89,0.00,,,0.00,VWS V14.01,2014-03-09 05:46:00,
2014-03-09 00:47:00,6.7,4.2,30.15,West,281,0.0,5.6,89,0.00,,,0.00,VWS V14.01,2014-03-09 05:47:00,
2014-03-09 00:52:00,7.4,4.8,30.15,WNW,287,1.4,5.6,89,0.00,,,0.00,VWS V14.01,2014-03-09 05:52:00,
2014-03-09 00:57:00,7.6,4.6,30.15,West,278,1.4,5.6,87,0.00,,,0.00,VWS V14.01,2014-03-09 05:57:00,
2014-03-09 00:59:00,6.7,3.7,30.15,WNW,295,2.8,5.6,87,0.00,,,0.00,VWS V14.01,2014-03-09 05:59:00,
2014-03-09 01:02:00,7.9,5.1,30.15,WNW,288,0.0,5.6,88,0.00,,,0.00,VWS V14.01,2014-03-09 06:02:00,
2014-03-09 01:07:00,8.4,5.6,30.15,West,270,4.2,5.6,88,0.00,,,0.00,VWS V14.01,2014-03-09 06:07:00,
2014-03-09 01:12:00,8.9,5.8,30.15,West,263,0.0,5.6,87,0.00,,,0.00,VWS V14.01,2014-03-09 06:12:00,
2014-03-09 01:17:00,8.6,5.3,30.15,WNW,289,0.0,5.6,86,0.00,,,0.00,VWS V14.01,2014-03-09 06:17:00,
2014-03-09 01:22:00,8.0,4.4,30.15,West,272,1.4,5.6,85,0.00,,,0.00,VWS V14.01,2014-03-09 06:22:00,
2014-03-09 01:27:00,7.3,3.5,30.16,West,269,0.0,5.6,84,0.00,,,0.00,VWS V14.01,2014-03-09 06:27:00,
2014-03-09 01:32:00,6.9,3.9,30.15,West,270,1.4,5.6,87,0.00,,,0.00,VWS V14.01,2014-03-09 06:32:00,
2014-03-09 01:37:00,7.7,5.1,30.15,West,273,1.4,5.6,89,0.00,,,0.00,VWS V14.01,2014-03-09 06:37:00,
2014-03-09 01:42:00,8.1,5.3,30.16,WNW,294,1.4,5.6,88,0.00,,,0.00,VWS V14.01,2014-03-09 06:42:00,
2014-03-09 01:47:00,7.8,4.5,30.16,NW,309,0.0,5.6,86,0.00,,,0.00,VWS V14.01,2014-03-09 06:47:00,
2014-03-09 01:52:00,7.5,4.2,30.16,NW,307,0.0,5.6,86,0.00,,,0.00,VWS V14.01,2014-03-09 06:52:00,
2014-03-09 01:57:00,6.8,3.3,30.15,NW,307,0.0,5.6,85,0.00,,,0.00,VWS V14.01,2014-03-09 06:57:00,
2014-03-09 03:02:00,6.8,4.0,30.15,WNW,292,1.4,5.6,88,0.00,,,0.00,VWS V14.01,2014-03-09 07:02:00,
2014-03-09 03:07:00,7.5,4.9,30.15,WNW,297,0.0,5.6,89,0.00,,,0.00,VWS V14.01,2014-03-09 07:07:00,
2014-03-09 03:11:00,7.0,3.5,30.15,NNW,327,0.0,5.6,85,0.00,,,0.00,VWS V14.01,2014-03-09 07:11:00,
2014-03-09 03:16:00,5.2,1.2,30.15,NE,44,0.0,5.6,83,0.00,,,0.00,VWS V14.01,2014-03-09 07:16:00,
2014-03-09 03:21:00,2.7,-2.0,30.15,East,83,0.0,5.6,80,0.00,,,0.00,VWS V14.01,2014-03-09 07:21:00,
2014-03-09 03:26:00,1.3,-2.9,30.14,East,90,2.8,5.6,82,0.00,,,0.00,VWS V14.01,2014-03-09 07:26:00,
2014-03-09 03:31:00,1.4,-1.6,30.14,SE,131,0.0,5.6,87,0.00,,,0.00,VWS V14.01,2014-03-09 07:31:00,
2014-03-09 03:36:00,0.8,-2.6,30.14,SE,131,0.0,5.6,85,0.00,,,0.00,VWS V14.01,2014-03-09 07:36:00,
2014-03-09 03:41:00,0.1,-3.6,30.14,SSW,200,0.0,5.6,84,0.00,,,0.00,VWS V14.01,2014-03-09 07:41:00,
2014-03-09 03:46:00,-0.4,-3.8,30.14,SSE,166,0.0,5.6,85,0.00,,,0.00,VWS V14.01,2014-03-09 07:46:00,
2014-03-09 03:51:00,-1.0,-4.4,30.14,SSW,211,0.0,5.6,85,0.00,,,0.00,VWS V14.01,2014-03-09 07:51:00,
2014-03-09 03:56:00,-1.4,-4.8,30.14,SSW,211,0.0,5.6,85,0.00,,,0.00,VWS V14.01,2014-03-09 07:56:00,
2014-03-09 04:00:00,-1.5,-4.7,30.14,SSW,211,0.0,5.6,86,0.00,,,0.00,VWS V14.01,2014-03-09 08:00:00,
2014-03-09 04:01:00,-1.5,-4.7,30.14,SSW,211,0.0,0.0,86,0.00,,,0.00,VWS V14.01,2014-03-09 08:01:00,
2014-03-09 04:06:00,-2.1,-5.5,30.13,SSW,211,0.0,1.4,85,0.00,,,0.00,VWS V14.01,2014-03-09 08:06:00,
2014-03-09 04:11:00,-2.2,-5.3,30.13,SSW,212,0.0,1.4,86,0.00,,,0.00,VWS V14.01,2014-03-09 08:11:00,
2014-03-09 04:16:00,-2.1,-5.2,30.13,SSW,212,0.0,1.4,86,0.00,,,0.00,VWS V14.01,2014-03-09 08:16:00,
2014-03-09 04:21:00,-2.2,-5.3,30.13,SSW,213,1.4,1.4,86,0.00,,,0.00,VWS V14.01,2014-03-09 08:21:00,
2014-03-09 04:26:00,-2.2,-5.1,30.13,SSW,212,0.0,1.4,87,0.00,,,0.00,VWS V14.01,2014-03-09 08:26:00,
2014-03-09 04:31:00,-2.1,-5.0,30.13,SSW,212,0.0,1.4,87,0.00,,,0.00,VWS V14.01,2014-03-09 08:31:00,
2014-03-09 04:36:00,-1.6,-4.3,30.13,SW,226,0.0,1.4,88,0.00,,,0.00,VWS V14.01,2014-03-09 08:36:00,
2014-03-09 04:41:00,-1.8,-4.7,30.12,SW,218,0.0,1.4,87,0.00,,,0.00,VWS V14.01,2014-03-09 08:41:00,
2014-03-09 04:46:00,-2.4,-5.8,30.12,SW,218,0.0,1.4,85,0.00,,,0.00,VWS V14.01,2014-03-09 08:46:00,
2014-03-09 04:51:00,-2.2,-5.1,30.12,SW,219,1.4,1.4,87,0.00,,,0.00,VWS V14.01,2014-03-09 08:51:00,
2014-03-09 04:56:00,-2.1,-5.0,30.12,SSW,212,0.0,2.8,87,0.00,,,0.00,VWS V14.01,2014-03-09 08:56:00,
2014-03-09 05:00:00,-1.5,-4.7,30.14,SSW,211,0.0,5.6,86,0.00,,,0.00,VWS V14.01,2014-03-09 09:00:00,
2014-03-09 05:01:00,-2.0,-4.7,30.12,SSW,211,0.0,2.8,88,0.00,,,0.00,VWS V14.01,2014-03-09 09:01:00,
2014-03-09 05:06:00,-2.5,-5.6,30.11,SSW,211,0.0,2.8,86,0.00,,,0.00,VWS V14.01,2014-03-09 09:06:00,
2014-03-09 05:11:00,-2.8,-5.9,30.11,SSW,211,0.0,2.8,86,0.00,,,0.00,VWS V14.01,2014-03-09 09:11:00,
2014-03-09 05:16:00,-3.3,-6.7,30.11,SSW,201,0.0,2.8,85,0.00,,,0.00,VWS V14.01,2014-03-09 09:16:00,
2014-03-09 05:21:00,-4.1,-7.9,30.11,SSE,161,2.8,2.8,83,0.00,,,0.00,VWS V14.01,2014-03-09 09:21:00,
2014-03-09 05:26:00,-4.2,-7.6,30.11,South,173,2.8,2.8,85,0.00,,,0.00,VWS V14.01,2014-03-09 09:26:00,
2014-03-09 05:31:00,-3.6,-6.5,30.12,SSE,152,2.8,4.2,87,0.00,,,0.00,VWS V14.01,2014-03-09 09:31:00,
2014-03-09 05:36:00,-3.7,-6.8,30.11,SW,215,1.4,4.2,86,0.00,,,0.00,VWS V14.01,2014-03-09 09:36:00,
2014-03-09 05:41:00,-3.9,-7.3,30.11,SSW,201,1.4,4.2,85,0.00,,,0.00,VWS V14.01,2014-03-09 09:41:00,
2014-03-09 05:46:00,-4.3,-7.9,30.11,SSW,197,0.0,4.2,84,0.00,,,0.00,VWS V14.01,2014-03-09 09:46:00,
2014-03-09 05:51:00,-4.4,-7.8,30.11,SSW,197,1.4,4.2,85,0.00,,,0.00,VWS V14.01,2014-03-09 09:51:00,
2014-03-09 05:56:00,-4.8,-8.4,30.11,SW,225,2.8,4.2,84,0.00,,,0.00,VWS V14.01,2014-03-09 09:56:00,
2014-03-09 06:00:00,-5.2,-8.8,30.11,SSE,154,0.0,4.2,84,0.00,,,0.00,VWS V14.01,2014-03-09 10:00:00,
2014-03-09 06:01:00,-5.2,-8.8,30.11,SSE,153,0.0,4.2,84,0.00,,,0.00,VWS V14.01,2014-03-09 10:01:00,
2014-03-09 06:06:00,-5.6,-9.2,30.10,SW,214,2.8,4.2,84,0.00,,,0.00,VWS V14.01,2014-03-09 10:06:00,
2014-03-09 06:11:00,-5.4,-8.7,30.10,SSW,208,1.4,4.2,85,0.00,,,0.00,VWS V14.01,2014-03-09 10:11:00,
2014-03-09 06:16:00,-6.5,-10.8,30.10,South,172,1.4,4.2,81,0.00,,,0.00,VWS V14.01,2014-03-09 10:16:00,
2014-03-09 06:21:00,-6.3,-9.6,30.10,South,191,2.8,4.2,85,0.00,,,0.00,VWS V14.01,2014-03-09 10:21:00,
2014-03-09 06:26:00,-5.4,-8.3,30.10,SSW,200,4.2,4.2,87,0.00,,,0.00,VWS V14.01,2014-03-09 10:26:00,
2014-03-09 06:31:00,-4.7,-7.6,30.10,SSW,209,0.0,4.2,87,0.00,,,0.00,VWS V14.01,2014-03-09 10:31:00,
2014-03-09 06:36:00,-5.0,-8.1,30.10,SW,217,1.4,4.2,86,0.00,,,0.00,VWS V14.01,2014-03-09 10:36:00,
2014-03-09 06:41:00,-3.7,-7.1,30.10,SSW,210,1.4,4.2,85,0.00,,,0.00,VWS V14.01,2014-03-09 10:41:00,
2014-03-09 06:46:00,-3.7,-7.1,30.09,SSW,210,1.4,4.2,85,0.00,,,0.00,VWS V14.01,2014-03-09 10:46:00,
2014-03-09 06:51:00,-3.7,-7.1,30.09,SSW,210,1.4,4.2,85,0.00,,,0.00,VWS V14.01,2014-03-09 10:51:00,
2014-03-09 06:56:00,-3.7,-7.1,30.09,SSW,210,1.4,4.2,85,0.00,,,0.00,VWS V14.01,2014-03-09 10:56:00,
2014-03-09 07:00:00,-5.2,-8.8,30.11,SSE,154,0.0,4.2,84,0.00,,,0.00,VWS V14.01,2014-03-09 11:00:00,
2014-03-09 07:01:00,-3.7,-7.1,30.09,SSW,210,1.4,4.2,85,0.00,,,0.00,VWS V14.01,2014-03-09 11:01:00,
2014-03-09 07:06:00,-3.7,-7.1,30.09,SSW,210,1.4,4.2,85,0.00,,,0.00,VWS V14.01,2014-03-09 11:06:00,
2014-03-09 07:11:00,-3.7,-7.1,30.09,SSW,210,1.4,4.2,85,0.00,,,0.00,VWS V14.01,2014-03-09 11:11:00,
2014-03-09 07:16:00,-3.7,-7.1,30.09,SSW,210,1.4,4.2,85,0.00,,,0.00,VWS V14.01,2014-03-09 11:16:00,
2014-03-09 07:21:00,-3.7,-7.1,30.09,SSW,210,1.4,4.2,85,0.00,,,0.00,VWS V14.01,2014-03-09 11:21:00,
2014-03-09 07:26:00,-3.7,-7.1,30.10,SSW,210,1.4,4.2,85,0.00,,,0.00,VWS V14.01,2014-03-09 11:26:00,
2014-03-09 07:31:00,-3.7,-7.1,30.09,SSW,210,1.4,4.2,85,0.00,,,0.00,VWS V14.01,2014-03-09 11:31:00,
2014-03-09 07:36:00,-3.7,-7.1,30.09,SSW,210,1.4,4.2,85,0.00,,,0.00,VWS V14.01,2014-03-09 11:36:00,
2014-03-09 07:41:00,-3.7,-7.1,30.09,SSW,210,1.4,4.2,85,0.00,,,0.00,VWS V14.01,2014-03-09 11:41:00,
2014-03-09 07:46:00,-3.7,-7.1,30.09,SSW,210,1.4,4.2,85,0.00,,,0.00,VWS V14.01,2014-03-09 11:46:00,
2014-03-09 07:51:00,-3.7,-7.1,30.09,SSW,210,1.4,4.2,85,0.00,,,0.00,VWS V14.01,2014-03-09 11:51:00,
2014-03-09 07:56:00,-3.7,-7.1,30.09,SSW,210,1.4,4.2,85,0.00,,,0.00,VWS V14.01,2014-03-09 11:56:00,
2014-03-09 08:00:00,-3.7,-7.1,30.09,SSW,210,1.4,4.2,85,0.00,,,0.00,VWS V14.01,2014-03-09 12:00:00,
2014-03-09 08:01:00,-3.7,-7.1,30.09,SSW,210,1.4,4.2,85,0.00,,,0.00,VWS V14.01,2014-03-09 12:01:00,
2014-03-09 08:06:00,-3.7,-7.1,30.09,SSW,210,1.4,1.4,85,0.00,,,0.00,VWS V14.01,2014-03-09 12:06:00,
2014-03-09 08:11:00,-3.7,-7.1,30.09,SSW,210,1.4,1.4,85,0.00,,,0.00,VWS V14.01,2014-03-09 12:11:00,
2014-03-09 08:16:00,-3.7,-7.1,30.09,SSW,210,1.4,1.4,85,0.00,,,0.00,VWS V14.01,2014-03-09 12:16:00,
2014-03-09 08:21:00,-3.7,-7.1,30.09,SSW,210,1.4,1.4,85,0.00,,,0.00,VWS V14.01,2014-03-09 12:21:00,
2014-03-09 08:26:00,-3.7,-7.1,30.09,SSW,210,1.4,1.4,85,0.00,,,0.00,VWS V14.01,2014-03-09 12:26:00,
2014-03-09 08:31:00,-3.7,-7.1,30.09,SSW,210,1.4,1.4,85,0.00,,,0.00,VWS V14.01,2014-03-09 12:31:00,
2014-03-09 08:36:00,-3.7,-7.1,30.09,SSW,210,1.4,1.4,85,0.00,,,0.00,VWS V14.01,2014-03-09 12:36:00,
2014-03-09 08:41:00,-3.7,-7.1,30.09,SSW,210,1.4,1.4,85,0.00,,,0.00,VWS V14.01,2014-03-09 12:41:00,
2014-03-09 08:46:00,0.4,-2.8,30.09,SSW,207,0.0,2.8,86,0.00,,,0.00,VWS V14.01,2014-03-09 12:46:00,
2014-03-09 08:51:00,0.7,-2.7,30.08,SSE,166,1.4,2.8,85,0.00,,,0.00,VWS V14.01,2014-03-09 12:51:00,
2014-03-09 08:56:00,1.0,-2.5,30.08,SSE,167,4.2,4.2,85,0.00,,,0.00,VWS V14.01,2014-03-09 12:56:00,
2014-03-09 09:00:00,-3.7,-7.1,30.09,SSW,210,1.4,4.2,85,0.00,,,0.00,VWS V14.01,2014-03-09 13:00:00,
2014-03-09 09:01:00,1.6,-1.6,30.08,SE,131,4.2,5.6,86,0.00,,,0.00,VWS V14.01,2014-03-09 13:01:00,
2014-03-09 09:06:00,2.1,-0.9,30.08,SSE,160,2.8,7.0,87,0.00,,,0.00,VWS V14.01,2014-03-09 13:06:00,
2014-03-09 09:11:00,2.5,-0.7,30.08,SSE,167,2.8,7.0,86,0.00,,,0.00,VWS V14.01,2014-03-09 13:11:00,
2014-03-09 09:16:00,2.8,-0.4,30.08,SE,146,1.4,7.0,86,0.00,,,0.00,VWS V14.01,2014-03-09 13:16:00,
2014-03-09 09:21:00,3.2,0.0,30.07,SSE,168,1.4,7.0,86,0.00,,,0.00,VWS V14.01,2014-03-09 13:21:00,
2014-03-09 09:26:00,3.6,0.4,30.07,SSE,158,0.0,7.0,86,0.00,,,0.00,VWS V14.01,2014-03-09 13:26:00,
2014-03-09 09:31:00,3.9,0.6,30.07,SE,140,0.0,7.0,86,0.00,,,0.00,VWS V14.01,2014-03-09 13:31:00,
2014-03-09 09:36:00,4.2,0.9,30.07,SSE,149,0.0,7.0,86,0.00,,,0.00,VWS V14.01,2014-03-09 13:36:00,
2014-03-09 09:41:00,4.4,0.9,30.06,East,101,2.8,7.0,85,0.00,,,0.00,VWS V14.01,2014-03-09 13:41:00,
2014-03-09 09:46:00,4.6,1.1,30.06,ESE,115,0.0,7.0,85,0.00,,,0.00,VWS V14.01,2014-03-09 13:46:00,
2014-03-09 09:51:00,4.6,1.1,30.06,ENE,76,2.8,7.0,85,0.00,,,0.00,VWS V14.01,2014-03-09 13:51:00,
2014-03-09 09:56:00,4.5,0.7,30.06,ESE,107,4.2,7.0,84,0.00,,,0.00,VWS V14.01,2014-03-09 13:56:00,
2014-03-09 10:00:00,4.7,1.2,30.05,SE,128,4.2,7.0,85,0.00,,,0.00,VWS V14.01,2014-03-09 14:00:00,
2014-03-09 10:01:00,4.7,1.2,30.05,SE,131,2.8,7.0,85,0.00,,,0.00,VWS V14.01,2014-03-09 14:01:00,
2014-03-09 10:06:00,4.9,1.4,30.05,SSE,150,2.8,5.6,85,0.00,,,0.00,VWS V14.01,2014-03-09 14:06:00,
2014-03-09 10:11:00,5.4,1.9,30.05,ESE,122,2.8,7.0,85,0.00,,,0.00,VWS V14.01,2014-03-09 14:11:00,
2014-03-09 10:16:00,5.9,2.4,30.05,ESE,113,4.2,7.0,85,0.00,,,0.00,VWS V14.01,2014-03-09 14:16:00,
2014-03-09 10:21:00,6.3,2.8,30.04,SSE,154,5.6,7.0,85,0.00,,,0.00,VWS V14.01,2014-03-09 14:21:00,
2014-03-09 10:26:00,7.0,3.2,30.04,SSE,167,5.6,8.4,84,0.00,,,0.00,VWS V14.01,2014-03-09 14:26:00,
2014-03-09 10:31:00,7.5,3.7,30.04,SE,134,2.8,8.4,84,0.00,,,0.00,VWS V14.01,2014-03-09 14:31:00,
2014-03-09 10:36:00,8.0,3.9,30.04,South,177,7.0,9.8,83,0.00,,,0.00,VWS V14.01,2014-03-09 14:36:00,
2014-03-09 10:41:00,8.4,4.3,30.04,SE,131,5.6,9.8,83,0.00,,,0.00,VWS V14.01,2014-03-09 14:41:00,
2014-03-09 10:46:00,8.9,4.8,30.04,SSE,149,5.6,9.8,83,0.00,,,0.00,VWS V14.01,2014-03-09 14:46:00,
2014-03-09 10:51:00,9.4,5.0,30.03,SSE,155,7.0,9.8,82,0.00,,,0.00,VWS V14.01,2014-03-09 14:51:00,
2014-03-09 10:56:00,9.9,5.5,30.03,SSE,159,5.6,9.8,82,0.00,,,0.00,VWS V14.01,2014-03-09 14:56:00,
2014-03-09 11:00:00,4.7,1.2,30.05,SE,128,4.2,7.0,85,0.00,,,0.00,VWS V14.01,2014-03-09 15:00:00,
2014-03-09 11:01:00,10.4,6.0,30.02,SE,131,5.6,9.8,82,0.00,,,0.00,VWS V14.01,2014-03-09 15:01:00,
2014-03-09 11:06:00,10.8,6.4,30.02,SSE,157,5.6,9.8,82,0.00,,,0.00,VWS V14.01,2014-03-09 15:06:00,
2014-03-09 11:11:00,11.2,6.5,30.01,SE,132,4.2,9.8,81,0.00,,,0.00,VWS V14.01,2014-03-09 15:11:00,
2014-03-09 11:16:00,11.7,7.0,30.01,SSE,148,8.4,9.8,81,0.00,,,0.00,VWS V14.01,2014-03-09 15:16:00,
2014-03-09 11:21:00,12.3,7.6,30.00,South,174,4.2,9.8,81,0.00,,,0.00,VWS V14.01,2014-03-09 15:21:00,
2014-03-09 11:26:00,12.9,8.2,30.00,SSE,158,5.6,11.2,81,0.00,,,0.00,VWS V14.01,2014-03-09 15:26:00,
2014-03-09 11:31:00,13.6,8.9,29.99,South,174,8.4,11.2,81,0.00,,,0.00,VWS V14.01,2014-03-09 15:31:00,
2014-03-09 11:36:00,14.1,9.4,29.99,SE,146,5.6,12.6,81,0.00,,,0.00,VWS V14.01,2014-03-09 15:36:00,
2014-03-09 11:41:00,14.6,9.8,29.98,ESE,116,8.4,12.6,81,0.00,,,0.00,VWS V14.01,2014-03-09 15:41:00,
2014-03-09 11:46:00,15.4,10.9,29.98,South,169,11.2,12.6,82,0.00,,,0.00,VWS V14.01,2014-03-09 15:46:00,
2014-03-09 11:51:00,16.0,11.2,29.97,ESE,108,4.2,12.6,81,0.00,,,0.00,VWS V14.01,2014-03-09 15:51:00,
2014-03-09 11:56:00,16.6,11.8,29.97,SSE,160,5.6,12.6,81,0.00,,,0.00,VWS V14.01,2014-03-09 15:56:00,
2014-03-09 12:00:00,17.4,12.6,29.97,SSE,165,8.4,12.6,81,0.00,,,0.00,VWS V14.01,2014-03-09 16:00:00,
2014-03-09 12:01:00,17.3,12.5,29.97,South,169,8.4,12.6,81,0.00,,,0.00,VWS V14.01,2014-03-09 16:01:00,
2014-03-09 12:06:00,17.9,12.8,29.97,SSE,153,7.0,9.8,80,0.00,,,0.00,VWS V14.01,2014-03-09 16:06:00,
2014-03-09 12:11:00,18.1,12.7,29.96,SSE,152,7.0,11.2,79,0.00,,,0.00,VWS V14.01,2014-03-09 16:11:00,
2014-03-09 12:16:00,18.5,13.1,29.95,SSE,168,9.8,14.0,79,0.00,,,0.00,VWS V14.01,2014-03-09 16:16:00,
2014-03-09 12:21:00,18.7,13.0,29.95,SE,135,7.0,14.0,78,0.00,,,0.00,VWS V14.01,2014-03-09 16:21:00,
2014-03-09 12:26:00,18.9,13.2,29.94,SSE,168,9.8,14.0,78,0.00,,,0.00,VWS V14.01,2014-03-09 16:26:00,
2014-03-09 12:31:00,19.3,13.3,29.94,SSE,156,8.4,14.0,77,0.00,,,0.00,VWS V14.01,2014-03-09 16:31:00,
2014-03-09 12:36:00,19.2,13.2,29.94,SSE,167,8.4,15.4,77,0.00,,,0.00,VWS V14.01,2014-03-09 16:36:00,
2014-03-09 12:41:00,19.6,13.6,29.93,SSE,154,8.4,15.4,77,0.00,,,0.00,VWS V14.01,2014-03-09 16:41:00,
2014-03-09 12:46:00,19.9,13.9,29.93,SE,137,12.6,15.4,77,0.00,,,0.00,VWS V14.01,2014-03-09 16:46:00,
2014-03-09 12:51:00,20.2,14.4,29.92,SE,136,12.6,16.8,78,0.00,,,0.00,VWS V14.01,2014-03-09 16:51:00,
2014-03-09 12:56:00,20.5,14.7,29.92,SE,131,14.0,18.2,78,0.00,,,0.00,VWS V14.01,2014-03-09 16:56:00,
2014-03-09 13:00:00,17.4,12.6,29.97,SSE,165,8.4,12.6,81,0.00,,,0.00,VWS V14.01,2014-03-09 17:00:00,
2014-03-09 13:01:00,20.6,14.8,29.91,SSE,167,14.0,18.2,78,0.00,,,0.00,VWS V14.01,2014-03-09 17:01:00,
2014-03-09 13:06:00,20.9,15.1,29.92,South,176,12.6,18.2,78,0.00,,,0.00,VWS V14.01,2014-03-09 17:06:00,
2014-03-09 13:11:00,21.2,15.7,29.90,SSE,152,16.8,19.6,79,0.00,,,0.00,VWS V14.01,2014-03-09 17:11:00,
2014-03-09 13:16:00,21.7,16.2,29.89,SSE,158,12.6,19.6,79,0.00,,,0.00,VWS V14.01,2014-03-09 17:16:00,
2014-03-09 13:21:00,22.0,16.5,29.89,SE,143,12.6,19.6,79,0.00,,,0.00,VWS V14.01,2014-03-09 17:21:00,
2014-03-09 13:26:00,22.2,16.7,29.89,SE,124,8.4,19.6,79,0.00,,,0.00,VWS V14.01,2014-03-09 17:26:00,
2014-03-09 13:31:00,22.6,16.8,29.88,SSE,162,9.8,19.6,78,0.00,,,0.00,VWS V14.01,2014-03-09 17:31:00,
2014-03-09 13:36:00,23.2,17.1,29.88,SSW,212,8.4,19.6,77,0.00,,,0.00,VWS V14.01,2014-03-09 17:36:00,
2014-03-09 13:41:00,23.9,17.1,29.87,South,173,9.8,19.6,75,0.00,,,0.00,VWS V14.01,2014-03-09 17:41:00,
2014-03-09 13:46:00,24.7,17.6,29.87,South,174,8.4,19.6,74,0.00,,,0.00,VWS V14.01,2014-03-09 17:46:00,
2014-03-09 13:51:00,25.8,17.0,29.86,South,183,9.8,21.0,69,0.00,,,0.00,VWS V14.01,2014-03-09 17:51:00,
2014-03-09 13:56:00,26.5,17.0,29.85,SSW,210,9.8,22.4,67,0.00,,,0.00,VWS V14.01,2014-03-09 17:56:00,
2014-03-09 14:00:00,27.1,16.9,29.87,WSW,239,14.0,22.4,65,0.00,,,0.00,VWS V14.01,2014-03-09 18:00:00,
2014-03-09 14:01:00,27.1,17.3,29.86,South,179,8.4,22.4,66,0.00,,,0.00,VWS V14.01,2014-03-09 18:01:00,
2014-03-09 14:06:00,27.1,16.6,29.85,SSW,194,12.6,22.4,64,0.00,,,0.00,VWS V14.01,2014-03-09 18:06:00,
2014-03-09 14:11:00,27.1,16.2,29.85,SSW,200,9.8,22.4,63,0.00,,,0.00,VWS V14.01,2014-03-09 18:11:00,
2014-03-09 14:16:00,27.2,16.3,29.85,WSW,240,8.4,22.4,63,0.00,,,0.00,VWS V14.01,2014-03-09 18:16:00,
2014-03-09 14:21:00,27.2,16.6,29.84,SSW,202,7.0,22.4,64,0.00,,,0.00,VWS V14.01,2014-03-09 18:21:00,
2014-03-09 14:26:00,27.4,16.1,29.83,South,187,9.8,22.4,62,0.00,,,0.00,VWS V14.01,2014-03-09 18:26:00,
2014-03-09 14:31:00,27.3,16.8,29.82,SW,218,12.6,26.6,64,0.00,,,0.00,VWS V14.01,2014-03-09 18:31:00,
2014-03-09 14:36:00,26.9,17.1,29.81,SW,215,8.4,28.0,66,0.00,,,0.00,VWS V14.01,2014-03-09 18:36:00,
2014-03-09 14:41:00,26.9,17.4,29.81,WSW,239,11.2,28.0,67,0.00,,,0.00,VWS V14.01,2014-03-09 18:41:00,
2014-03-09 14:46:00,27.1,17.6,29.80,SSW,201,15.4,28.0,67,0.00,,,0.00,VWS V14.01,2014-03-09 18:46:00,
2014-03-09 14:51:00,27.4,17.2,29.80,WSW,245,11.2,28.0,65,0.00,,,0.00,VWS V14.01,2014-03-09 18:51:00,
2014-03-09 14:56:00,27.5,17.3,29.80,South,177,7.0,28.0,65,0.00,,,0.00,VWS V14.01,2014-03-09 18:56:00,
2014-03-09 15:00:00,27.1,16.9,29.87,WSW,239,14.0,22.4,65,0.00,,,0.00,VWS V14.01,2014-03-09 19:00:00,
2014-03-09 15:01:00,27.8,17.6,29.78,SW,226,5.6,28.0,65,0.00,,,0.00,VWS V14.01,2014-03-09 19:01:00,
2014-03-09 15:06:00,28.0,17.4,29.78,SSW,208,8.4,28.0,64,0.00,,,0.00,VWS V14.01,2014-03-09 19:06:00,
2014-03-09 15:11:00,28.2,18.0,29.77,West,276,7.0,28.0,65,0.00,,,0.00,VWS V14.01,2014-03-09 19:11:00,
2014-03-09 15:16:00,28.4,18.1,29.76,SW,216,12.6,28.0,65,0.00,,,0.00,VWS V14.01,2014-03-09 19:16:00,
2014-03-09 15:21:00,28.6,18.3,29.77,SSW,211,9.8,28.0,65,0.00,,,0.00,VWS V14.01,2014-03-09 19:21:00,
2014-03-09 15:26:00,28.8,18.5,29.77,SSW,212,5.6,30.8,65,0.00,,,0.00,VWS V14.01,2014-03-09 19:26:00,
2014-03-09 15:31:00,28.8,18.5,29.77,West,272,22.4,30.8,65,0.00,,,0.00,VWS V14.01,2014-03-09 19:31:00,
2014-03-09 15:36:00,28.8,18.9,29.76,WSW,241,9.8,30.8,66,0.00,,,0.00,VWS V14.01,2014-03-09 19:36:00,
2014-03-09 15:41:00,28.8,19.2,29.75,SSW,195,19.6,30.8,67,0.00,,,0.00,VWS V14.01,2014-03-09 19:41:00,
2014-03-09 15:46:00,28.8,18.9,29.75,SW,224,12.6,30.8,66,0.00,,,0.00,VWS V14.01,2014-03-09 19:46:00,
2014-03-09 15:49:00,28.9,19.3,29.74,SW,214,9.8,30.8,67,0.00,,,0.00,VWS V14.01,2014-03-09 19:49:00,
2014-03-09 15:54:00,28.9,19.3,29.73,WSW,239,8.4,30.8,67,0.00,,,0.00,VWS V14.01,2014-03-09 19:54:00,
2014-03-09 15:59:00,29.0,19.8,29.73,South,183,11.2,30.8,68,0.00,,,0.00,VWS V14.01,2014-03-09 19:59:00,
2014-03-09 16:00:00,29.1,19.9,29.72,SW,226,8.4,30.8,68,0.00,,,0.00,VWS V14.01,2014-03-09 20:00:00,
2014-03-09 16:04:00,29.1,19.9,29.72,WSW,238,12.6,23.8,68,0.00,,,0.00,VWS V14.01,2014-03-09 20:04:00,
2014-03-09 16:09:00,29.2,20.0,29.71,SW,221,9.8,26.6,68,0.00,,,0.00,VWS V14.01,2014-03-09 20:09:00,
2014-03-09 16:14:00,29.1,20.2,29.70,SW,219,11.2,26.6,69,0.00,,,0.00,VWS V14.01,2014-03-09 20:14:00,
2014-03-09 16:19:00,28.9,20.7,29.70,WSW,248,14.0,28.0,71,0.00,,,0.00,VWS V14.01,2014-03-09 20:19:00,
2014-03-09 16:24:00,28.8,20.6,29.68,SW,225,16.8,28.0,71,0.00,,,0.00,VWS V14.01,2014-03-09 20:24:00,
2014-03-09 16:29:00,28.9,20.4,29.67,SSW,208,7.0,28.0,70,0.00,,,0.00,VWS V14.01,2014-03-09 20:29:00,
2014-03-09 16:34:00,29.1,20.5,29.67,SW,236,16.8,35.0,70,0.00,,,0.00,VWS V14.01,2014-03-09 20:34:00,
2014-03-09 16:39:00,29.2,20.3,29.66,SSW,211,11.2,35.0,69,0.00,,,0.00,VWS V14.01,2014-03-09 20:39:00,
2014-03-09 16:44:00,29.2,20.3,29.66,WSW,250,14.0,35.0,69,0.00,,,0.00,VWS V14.01,2014-03-09 20:44:00,
2014-03-09 16:49:00,29.3,20.1,29.66,SW,217,18.2,35.0,68,0.00,,,0.00,VWS V14.01,2014-03-09 20:49:00,
2014-03-09 16:54:00,29.6,20.0,29.67,SW,236,7.0,35.0,67,0.00,,,0.00,VWS V14.01,2014-03-09 20:54:00,
2014-03-09 16:59:00,29.8,19.8,29.67,WSW,238,9.8,35.0,66,0.00,,,0.00,VWS V14.01,2014-03-09 20:59:00,
2014-03-09 17:00:00,29.1,19.9,29.72,SW,226,8.4,30.8,68,0.00,,,0.00,VWS V14.01,2014-03-09 21:00:00,
2014-03-09 17:04:00,30.0,19.7,29.67,SW,227,8.4,35.0,65,0.00,,,0.00,VWS V14.01,2014-03-09 21:04:00,
2014-03-09 17:09:00,30.2,19.9,29.67,West,272,8.4,35.0,65,0.00,,,0.00,VWS V14.01,2014-03-09 21:09:00,
2014-03-09 17:14:00,30.3,19.6,29.67,SW,225,11.2,35.0,64,0.00,,,0.00,VWS V14.01,2014-03-09 21:14:00,
2014-03-09 17:19:00,30.6,19.9,29.67,WSW,256,8.4,35.0,64,0.00,,,0.00,VWS V14.01,2014-03-09 21:19:00,
2014-03-09 17:24:00,30.8,20.1,29.67,WNW,283,7.0,35.0,64,0.00,,,0.00,VWS V14.01,2014-03-09 21:24:00,
2014-03-09 17:29:00,31.0,20.3,29.69,SW,226,0.0,35.0,64,0.00,,,0.00,VWS V14.01,2014-03-09 21:29:00,
2014-03-09 17:34:00,31.2,20.5,29.69,SW,224,4.2,35.0,64,0.00,,,0.00,VWS V14.01,2014-03-09 21:34:00,
2014-03-09 17:39:00,31.2,20.5,29.69,WSW,255,5.6,35.0,64,0.00,,,0.00,VWS V14.01,2014-03-09 21:39:00,
2014-03-09 17:44:00,31.2,20.8,29.69,WNW,283,7.0,35.0,65,0.00,,,0.00,VWS V14.01,2014-03-09 21:44:00,
2014-03-09 17:49:00,31.3,20.9,29.69,WSW,250,5.6,35.0,65,0.00,,,0.00,VWS V14.01,2014-03-09 21:49:00,
2014-03-09 17:54:00,31.4,21.0,29.69,WSW,239,5.6,35.0,65,0.00,,,0.00,VWS V14.01,2014-03-09 21:54:00,
2014-03-09 17:59:00,31.4,21.0,29.68,West,269,8.4,35.0,65,0.00,,,0.00,VWS V14.01,2014-03-09 21:59:00,
2014-03-09 18:00:00,31.4,21.0,29.68,West,260,5.6,35.0,65,0.00,,,0.00,VWS V14.01,2014-03-09 22:00:00,
2014-03-09 18:04:00,31.5,21.1,29.68,WSW,249,5.6,14.0,65,0.00,,,0.00,VWS V14.01,2014-03-09 22:04:00,
2014-03-09 18:09:00,31.5,21.1,29.68,SW,226,11.2,21.0,65,0.00,,,0.00,VWS V14.01,2014-03-09 22:09:00,
2014-03-09 18:14:00,31.6,21.2,29.68,WSW,252,9.8,22.4,65,0.00,,,0.00,VWS V14.01,2014-03-09 22:14:00,
2014-03-09 18:19:00,31.7,20.9,29.68,WSW,252,16.8,25.2,64,0.00,,,0.00,VWS V14.01,2014-03-09 22:19:00,
2014-03-09 18:24:00,31.6,20.8,29.67,West,267,14.0,35.0,64,0.00,,,0.00,VWS V14.01,2014-03-09 22:24:00,
2014-03-09 18:29:00,31.6,20.8,29.67,West,260,19.6,35.0,64,0.00,,,0.00,VWS V14.01,2014-03-09 22:29:00,
2014-03-09 18:34:00,31.6,20.8,29.67,SW,229,18.2,44.8,64,0.00,,,0.00,VWS V14.01,2014-03-09 22:34:00,
2014-03-09 18:39:00,31.5,21.1,29.67,SW,236,7.0,44.8,65,0.00,,,0.00,VWS V14.01,2014-03-09 22:39:00,
2014-03-09 18:44:00,31.3,21.3,29.66,WSW,249,14.0,44.8,66,0.00,,,0.00,VWS V14.01,2014-03-09 22:44:00,
2014-03-09 18:49:00,31.2,21.2,29.66,SW,236,11.2,44.8,66,0.00,,,0.00,VWS V14.01,2014-03-09 22:49:00,
2014-03-09 18:53:00,31.1,21.4,29.66,WSW,238,14.0,44.8,67,0.00,,,0.00,VWS V14.01,2014-03-09 22:53:00,
2014-03-09 18:58:00,31.0,21.7,29.66,SSW,207,5.6,44.8,68,0.00,,,0.00,VWS V14.01,2014-03-09 22:58:00,
2014-03-09 19:00:00,31.4,21.0,29.68,West,260,5.6,35.0,65,0.00,,,0.00,VWS V14.01,2014-03-09 23:00:00,
2014-03-09 19:03:00,30.8,21.9,29.66,SW,232,32.2,44.8,69,0.00,,,0.00,VWS V14.01,2014-03-09 23:03:00,
2014-03-09 19:08:00,30.7,22.1,29.66,SW,235,15.4,44.8,70,0.00,,,0.00,VWS V14.01,2014-03-09 23:08:00,
2014-03-09 19:13:00,30.5,22.2,29.66,WSW,256,18.2,44.8,71,0.00,,,0.00,VWS V14.01,2014-03-09 23:13:00,
2014-03-09 19:18:00,30.4,22.5,29.66,SSW,206,16.8,44.8,72,0.00,,,0.00,VWS V14.01,2014-03-09 23:18:00,
2014-03-09 19:23:00,30.3,22.7,29.65,WSW,248,8.4,44.8,73,0.00,,,0.00,VWS V14.01,2014-03-09 23:23:00,
2014-03-09 19:28:00,30.1,22.8,29.65,SSW,201,25.2,44.8,74,0.00,,,0.00,VWS V14.01,2014-03-09 23:28:00,
2014-03-09 19:33:00,30.0,23.0,29.65,SW,229,18.2,44.8,75,0.00,,,0.00,VWS V14.01,2014-03-09 23:33:00,
2014-03-09 19:38:00,30.0,23.4,29.66,WSW,238,19.6,44.8,76,0.00,,,0.00,VWS V14.01,2014-03-09 23:38:00,
2014-03-09 19:43:00,29.9,23.3,29.66,SW,231,25.2,44.8,76,0.00,,,0.00,VWS V14.01,2014-03-09 23:43:00,
2014-03-09 19:48:00,29.9,23.6,29.66,WSW,256,16.8,44.8,77,0.00,,,0.00,VWS V14.01,2014-03-09 23:48:00,
2014-03-09 19:53:00,29.9,23.6,29.66,SW,219,15.4,44.8,77,0.00,,,0.00,VWS V14.01,2014-03-09 23:53:00,
2014-03-09 19:58:00,29.9,23.9,29.67,SW,224,11.2,44.8,78,0.00,,,0.00,VWS V14.01,2014-03-09 23:58:00,
2014-03-09 20:00:00,29.9,23.9,29.67,WSW,242,11.2,44.8,78,0.00,,,0.00,VWS V14.01,2014-03-10 00:00:00,
2014-03-09 20:03:00,29.8,23.8,29.67,SW,219,12.6,19.6,78,0.00,,,0.00,VWS V14.01,2014-03-10 00:03:00,
2014-03-09 20:08:00,29.9,23.9,29.66,SW,232,8.4,32.2,78,0.00,,,0.00,VWS V14.01,2014-03-10 00:08:00,
2014-03-09 20:13:00,29.9,23.9,29.66,West,260,4.2,32.2,78,0.00,,,0.00,VWS V14.01,2014-03-10 00:13:00,
2014-03-09 20:18:00,29.9,24.2,29.66,WSW,239,28.0,32.2,79,0.00,,,0.00,VWS V14.01,2014-03-10 00:18:00,
2014-03-09 20:23:00,29.9,24.2,29.66,WSW,248,18.2,32.2,79,0.00,,,0.00,VWS V14.01,2014-03-10 00:23:00,
2014-03-09 20:28:00,29.9,24.2,29.66,NNE,18,5.6,32.2,79,0.00,,,0.00,VWS V14.01,2014-03-10 00:28:00,
2014-03-09 20:33:00,29.9,24.2,29.67,WSW,249,8.4,32.2,79,0.00,,,0.00,VWS V14.01,2014-03-10 00:33:00,
2014-03-09 20:38:00,30.0,24.3,29.67,West,265,26.6,33.6,79,0.00,,,0.00,VWS V14.01,2014-03-10 00:38:00,
2014-03-09 20:43:00,30.1,24.7,29.67,WSW,245,8.4,33.6,80,0.00,,,0.00,VWS V14.01,2014-03-10 00:43:00,
2014-03-09 20:48:00,30.1,24.7,29.67,NW,321,12.6,33.6,80,0.00,,,0.00,VWS V14.01,2014-03-10 00:48:00,
2014-03-09 20:53:00,30.1,24.7,29.67,WSW,253,15.4,33.6,80,0.00,,,0.00,VWS V14.01,2014-03-10 00:53:00,
2014-03-09 20:58:00,30.1,24.7,29.66,SW,236,11.2,33.6,80,0.00,,,0.00,VWS V14.01,2014-03-10 00:58:00,
2014-03-09 21:00:00,29.9,23.9,29.67,WSW,242,11.2,44.8,78,0.00,,,0.00,VWS V14.01,2014-03-10 01:00:00,
2014-03-09 21:03:00,30.1,25.0,29.66,WSW,242,8.4,33.6,81,0.00,,,0.00,VWS V14.01,2014-03-10 01:03:00,
2014-03-09 21:08:00,30.1,25.0,29.66,West,263,9.8,33.6,81,0.00,,,0.00,VWS V14.01,2014-03-10 01:08:00,
2014-03-09 21:13:00,30.1,25.0,29.66,WSW,249,11.2,33.6,81,0.00,,,0.00,VWS V14.01,2014-03-10 01:13:00,
2014-03-09 21:18:00,30.1,25.0,29.66,SW,226,14.0,33.6,81,0.00,,,0.00,VWS V14.01,2014-03-10 01:18:00,
2014-03-09 21:23:00,30.0,24.9,29.66,WSW,253,9.8,33.6,81,0.00,,,0.00,VWS V14.01,2014-03-10 01:23:00,
2014-03-09 21:28:00,30.1,25.0,29.66,WSW,252,11.2,33.6,81,0.00,,,0.00,VWS V14.01,2014-03-10 01:28:00,
2014-03-09 21:33:00,30.0,25.2,29.66,WSW,245,15.4,33.6,82,0.00,,,0.00,VWS V14.01,2014-03-10 01:33:00,
2014-03-09 21:38:00,29.9,25.1,29.66,SW,232,9.8,33.6,82,0.00,,,0.00,VWS V14.01,2014-03-10 01:38:00,
2014-03-09 21:43:00,30.0,25.2,29.66,WSW,255,9.8,33.6,82,0.00,,,0.00,VWS V14.01,2014-03-10 01:43:00,
2014-03-09 21:48:00,30.0,25.2,29.67,WSW,242,9.8,33.6,82,0.00,,,0.00,VWS V14.01,2014-03-10 01:48:00,
2014-03-09 21:53:00,30.0,25.2,29.66,SW,235,14.0,33.6,82,0.00,,,0.00,VWS V14.01,2014-03-10 01:53:00,
2014-03-09 21:58:00,30.1,25.6,29.67,WSW,246,12.6,33.6,83,0.00,,,0.00,VWS V14.01,2014-03-10 01:58:00,
2014-03-09 22:00:00,30.1,25.6,29.67,WSW,246,16.8,33.6,83,0.00,,,0.00,VWS V14.01,2014-03-10 02:00:00,
2014-03-09 22:03:00,30.2,25.7,29.67,SW,232,18.2,22.4,83,0.00,,,0.00,VWS V14.01,2014-03-10 02:03:00,
2014-03-09 22:08:00,30.1,25.6,29.67,WSW,256,16.8,22.4,83,0.00,,,0.00,VWS V14.01,2014-03-10 02:08:00,
2014-03-09 22:13:00,30.1,25.6,29.67,WSW,242,8.4,22.4,83,0.00,,,0.00,VWS V14.01,2014-03-10 02:13:00,
2014-03-09 22:18:00,30.1,25.6,29.67,WNW,301,14.0,22.4,83,0.00,,,0.00,VWS V14.01,2014-03-10 02:18:00,
2014-03-09 22:23:00,30.1,25.6,29.66,WSW,239,5.6,22.4,83,0.00,,,0.00,VWS V14.01,2014-03-10 02:23:00,
2014-03-09 22:28:00,30.1,25.6,29.66,SW,236,18.2,22.4,83,0.00,,,0.00,VWS V14.01,2014-03-10 02:28:00,
2014-03-09 22:33:00,30.1,25.9,29.66,SSW,205,9.8,22.4,84,0.00,,,0.00,VWS V14.01,2014-03-10 02:33:00,
2014-03-09 22:38:00,30.1,25.9,29.66,WSW,248,11.2,22.4,84,0.00,,,0.00,VWS V14.01,2014-03-10 02:38:00,
2014-03-09 22:43:00,30.2,26.0,29.66,WSW,239,5.6,22.4,84,0.00,,,0.00,VWS V14.01,2014-03-10 02:43:00,
2014-03-09 22:48:00,30.2,26.0,29.66,West,260,7.0,22.4,84,0.00,,,0.00,VWS V14.01,2014-03-10 02:48:00,
2014-03-09 22:53:00,30.4,26.1,29.66,WSW,242,5.6,22.4,84,0.00,,,0.00,VWS V14.01,2014-03-10 02:53:00,
2014-03-09 22:58:00,30.4,26.1,29.66,WSW,252,8.4,22.4,84,0.00,,,0.00,VWS V14.01,2014-03-10 02:58:00,
2014-03-09 23:00:00,30.1,25.6,29.67,WSW,246,16.8,33.6,83,0.00,,,0.00,VWS V14.01,2014-03-10 03:00:00,
2014-03-09 23:03:00,30.5,26.2,29.66,SW,215,11.2,22.4,84,0.00,,,0.00,VWS V14.01,2014-03-10 03:03:00,
2014-03-09 23:08:00,30.5,26.2,29.67,West,273,8.4,22.4,84,0.00,,,0.00,VWS V14.01,2014-03-10 03:08:00,
2014-03-09 23:13:00,30.7,26.5,29.67,WSW,238,8.4,22.4,84,0.00,,,0.00,VWS V14.01,2014-03-10 03:13:00,
2014-03-09 23:18:00,30.7,26.5,29.66,SW,225,9.8,22.4,84,0.00,,,0.00,VWS V14.01,2014-03-10 03:18:00,
2014-03-09 23:23:00,30.7,26.5,29.66,WSW,248,5.6,22.4,84,0.00,,,0.00,VWS V14.01,2014-03-10 03:23:00,
2014-03-09 23:28:00,30.8,26.5,29.66,WSW,248,12.6,22.4,84,0.00,,,0.00,VWS V14.01,2014-03-10 03:28:00,
2014-03-09 23:33:00,30.8,26.5,29.66,SW,226,9.8,22.4,84,0.00,,,0.00,VWS V14.01,2014-03-10 03:33:00,
2014-03-09 23:38:00,30.8,26.5,29.66,WSW,239,8.4,22.4,84,0.00,,,0.00,VWS V14.01,2014-03-10 03:38:00,
2014-03-09 23:43:00,30.9,26.6,29.66,WSW,250,5.6,22.4,84,0.00,,,0.00,VWS V14.01,2014-03-10 03:43:00,
2014-03-09 23:48:00,31.0,26.7,29.66,WSW,242,5.6,22.4,84,0.00,,,0.00,VWS V14.01,2014-03-10 03:48:00,
2014-03-09 23:53:00,31.0,26.7,29.66,WNW,287,8.4,22.4,84,0.00,,,0.00,VWS V14.01,2014-03-10 03:53:00,
2014-03-09 23:58:00,31.1,26.8,29.66,WSW,248,7.0,22.4,84,0.00,,,0.00,VWS V14.01,2014-03-10 03:58:00,